Time;durP1;ratioP1;P1;durP2;ratioP2;P2;SDS_P1;SDS_P2;PMS_P1;PMS_P2;Temp;Humidity;BMP_temperature;BMP_pressure;BME280_temperature;BME280_humidity;BME280_pressure;Samples;Min_cycle;Max_cycle;Signal;HPM_P1;HPM_P2
2022/11/17 00:00:23;;;;;;;8.40;7.37;;;5.30;99.90;;;;;;5048006;28;20208;-77
2022/11/17 00:02:49;;;;;;;9.03;7.43;;;5.30;99.90;;;;;;5047204;28;20174;-78
2022/11/17 00:05:15;;;;;;;8.77;7.47;;;5.30;99.90;;;;;;5047588;28;20232;-78
2022/11/17 00:07:42;;;;;;;8.83;7.13;;;5.30;99.90;;;;;;5045610;28;20178;-78
2022/11/17 00:10:08;;;;;;;6.97;6.27;;;5.30;99.90;;;;;;5045450;28;20198;-78
2022/11/17 00:15:18;;;;;;;7.80;6.80;;;5.30;99.90;;;;;;5046205;28;20205;-77
2022/11/17 00:17:46;;;;;;;7.70;6.50;;;5.20;99.90;;;;;;5046613;28;20659;-77
2022/11/17 00:22:56;;;;;;;7.70;6.77;;;5.20;99.90;;;;;;5049957;28;20204;-80
2022/11/17 00:25:22;;;;;;;7.97;7.17;;;5.20;99.90;;;;;;5042691;28;20647;-77
2022/11/17 00:27:47;;;;;;;7.27;6.43;;;5.20;99.90;;;;;;5044629;28;20691;-77
2022/11/17 00:34:03;;;;;;;7.83;6.63;;;5.20;99.90;;;;;;5045579;28;20198;-77
2022/11/17 00:35:52;;;;;;;6.23;5.50;;;5.20;99.90;;;;;;5045041;28;20216;-80
2022/11/17 00:38:18;;;;;;;6.67;5.70;;;5.10;99.90;;;;;;5044487;28;20954;-80
2022/11/17 00:40:43;;;;;;;6.67;5.43;;;5.20;99.90;;;;;;5046080;28;20181;-79
2022/11/17 00:43:09;;;;;;;6.73;5.80;;;5.20;99.90;;;;;;5044630;28;20175;-80
2022/11/17 00:45:35;;;;;;;8.00;6.53;;;5.20;99.90;;;;;;5044666;28;21667;-80
2022/11/17 00:48:00;;;;;;;8.50;6.83;;;5.20;99.90;;;;;;5045591;28;20170;-79
2022/11/17 00:50:26;;;;;;;7.10;6.40;;;5.30;99.90;;;;;;5044240;28;20206;-80
2022/11/17 00:52:52;;;;;;;7.70;6.57;;;5.20;99.90;;;;;;5045824;28;20565;-78
2022/11/17 00:55:17;;;;;;;8.67;7.27;;;5.20;99.90;;;;;;5043991;28;20227;-78
2022/11/17 00:57:43;;;;;;;8.47;7.50;;;5.20;99.90;;;;;;5043677;28;20178;-79
2022/11/17 01:00:09;;;;;;;8.80;7.70;;;5.10;99.90;;;;;;5044444;28;20182;-79
2022/11/17 01:02:34;;;;;;;8.80;6.90;;;5.10;99.90;;;;;;5044610;28;20178;-80
2022/11/17 01:05:00;;;;;;;7.20;6.37;;;5.10;99.90;;;;;;5045416;28;20197;-77
2022/11/17 01:07:25;;;;;;;7.57;6.73;;;5.20;99.90;;;;;;5044294;28;20213;-79
2022/11/17 01:09:51;;;;;;;8.67;6.97;;;6.00;99.90;;;;;;5045601;28;20206;-80
2022/11/17 01:12:17;;;;;;;7.97;6.63;;;5.20;99.90;;;;;;5044398;28;20177;-79
2022/11/17 01:14:42;;;;;;;8.43;6.87;;;6.40;99.90;;;;;;5043337;28;20770;-80
2022/11/17 01:17:08;;;;;;;7.80;7.00;;;5.20;99.90;;;;;;5042425;28;20221;-78
2022/11/17 01:19:33;;;;;;;8.17;6.70;;;5.20;99.90;;;;;;5045217;28;20602;-79
2022/11/17 01:21:59;;;;;;;8.43;6.87;;;5.20;99.90;;;;;;5045177;28;20194;-79
2022/11/17 01:24:24;;;;;;;8.23;6.97;;;5.20;99.90;;;;;;5045701;28;20210;-79
2022/11/17 01:26:50;;;;;;;8.50;7.53;;;6.30;99.90;;;;;;5043370;28;20249;-78
2022/11/17 01:29:16;;;;;;;7.37;6.30;;;5.10;99.90;;;;;;5043490;28;20198;-79
2022/11/17 01:31:43;;;;;;;9.27;7.37;;;5.10;99.90;;;;;;5044128;28;20241;-78
2022/11/17 01:34:09;;;;;;;8.03;6.80;;;6.30;1.00;;;;;;5045678;28;20682;-79
2022/11/17 01:39:27;;;;;;;9.90;7.07;;;5.10;1.00;;;;;;5045296;28;20185;-78
2022/11/17 01:41:53;;;;;;;7.63;6.83;;;5.10;1.00;;;;;;5045673;28;20278;-78
2022/11/17 01:44:50;;;;;;;8.93;7.00;;;5.00;1.00;;;;;;5047118;28;20193;-79
2022/11/17 01:47:22;;;;;;;9.77;7.17;;;5.00;1.00;;;;;;5048841;28;20210;-78
2022/11/17 01:49:51;;;;;;;11.10;8.23;;;5.00;1.00;;;;;;5049029;28;20208;-79
2022/11/17 01:52:17;;;;;;;10.60;7.83;;;4.90;1.00;;;;;;5048997;28;20242;-79
2022/11/17 01:54:45;;;;;;;9.27;7.37;;;5.00;1.00;;;;;;5048560;28;20193;-79
2022/11/17 01:57:21;;;;;;;9.97;8.10;;;4.90;1.00;;;;;;5046659;28;20641;-78
2022/11/17 01:59:57;;;;;;;8.47;7.57;;;4.90;1.00;;;;;;5047340;28;20235;-79
2022/11/17 02:02:23;;;;;;;9.90;7.93;;;4.80;1.00;;;;;;5047465;28;20193;-78
2022/11/17 02:04:58;;;;;;;10.23;8.63;;;4.90;1.00;;;;;;5043570;28;20741;-79
2022/11/17 02:07:33;;;;;;;10.77;8.87;;;4.90;1.00;;;;;;5047002;28;20221;-78
2022/11/17 02:10:01;;;;;;;10.00;8.13;;;4.90;1.00;;;;;;5047775;28;20224;-78
2022/11/17 02:12:29;;;;;;;9.70;8.30;;;4.90;1.00;;;;;;5048565;28;20235;-79
2022/11/17 02:14:54;;;;;;;10.20;8.30;;;4.80;1.00;;;;;;5046475;28;20217;-79
2022/11/17 02:17:23;;;;;;;10.17;9.10;;;4.80;1.00;;;;;;5046811;28;20205;-79
2022/11/17 02:20:06;;;;;;;11.87;8.70;;;4.90;1.00;;;;;;5047671;28;20295;-78
2022/11/17 02:22:56;;;;;;;10.37;8.97;;;4.80;1.00;;;;;;5048179;28;20182;-78
2022/11/17 02:25:41;;;;;;;10.07;8.77;;;4.80;1.00;;;;;;5046326;28;20198;-78
2022/11/17 02:28:53;;;;;;;9.53;8.00;;;5.20;1.00;;;;;;5046376;28;20285;-78
2022/11/17 02:31:42;;;;;;;9.60;8.07;;;4.90;1.00;;;;;;5020185;28;20190;-79
2022/11/17 02:34:29;;;;;;;10.33;8.53;;;4.80;1.00;;;;;;5056119;28;20182;-78
2022/11/17 02:37:02;;;;;;;9.87;8.00;;;4.90;1.00;;;;;;5046534;28;20198;-78
2022/11/17 02:39:37;;;;;;;8.63;7.73;;;4.90;99.90;;;;;;5045991;28;20229;-78
2022/11/17 02:44:02;;;;;;;9.97;8.03;;;5.00;99.90;;;;;;5046694;28;20193;-78
2022/11/17 02:45:17;;;;;;;8.63;7.73;;;5.10;99.90;;;;;;5047674;28;20197;-79
2022/11/17 02:47:47;;;;;;;11.37;8.30;;;5.00;99.90;;;;;;5044354;28;20193;-79
2022/11/17 02:50:13;;;;;;;9.23;8.10;;;4.90;99.90;;;;;;5046961;28;20679;-79
2022/11/17 02:52:39;;;;;;;9.43;8.27;;;5.00;99.90;;;;;;5047845;28;21273;-78
2022/11/17 02:55:07;;;;;;;9.90;8.70;;;5.00;99.90;;;;;;5046138;28;20182;-79
2022/11/17 02:57:35;;;;;;;10.43;8.90;;;5.00;99.90;;;;;;5046776;28;20746;-79
2022/11/17 03:00:08;;;;;;;10.57;8.80;;;4.90;99.90;;;;;;5046605;28;20243;-79
2022/11/17 03:02:52;;;;;;;12.07;9.67;;;4.90;1.00;;;;;;5045609;28;20224;-79
2022/11/17 03:05:55;;;;;;;11.17;8.73;;;4.80;1.00;;;;;;5047466;28;20188;-79
2022/11/17 03:08:20;;;;;;;12.93;11.52;;;4.90;1.00;;;;;;5046846;28;20947;-79
2022/11/17 03:11:02;;;;;;;12.27;10.23;;;4.80;1.00;;;;;;5051245;28;20206;-78
2022/11/17 03:13:37;;;;;;;11.97;9.57;;;4.80;1.00;;;;;;5050071;28;20182;-79
2022/11/17 03:16:18;;;;;;;11.20;9.73;;;4.80;1.00;;;;;;5048859;28;20201;-80
2022/11/17 03:19:18;;;;;;;13.03;9.90;;;4.80;1.00;;;;;;5050968;28;20218;-80
2022/11/17 03:22:03;;;;;;;12.57;9.97;;;4.80;1.00;;;;;;5053690;28;20193;-79
2022/11/17 03:24:39;;;;;;;14.87;10.70;;;4.70;1.00;;;;;;5054307;28;20277;-79
2022/11/17 03:27:17;;;;;;;13.60;9.97;;;4.70;1.00;;;;;;5055315;28;20221;-79
2022/11/17 03:29:48;;;;;;;13.37;9.97;;;4.70;19.60;;;;;;5057028;28;20336;-79
2022/11/17 03:32:15;;;;;;;12.77;9.73;;;4.70;1.00;;;;;;5056467;28;20219;-79
2022/11/17 03:34:47;;;;;;;14.23;10.83;;;4.70;1.00;;;;;;5056448;28;20186;-79
2022/11/17 03:37:15;;;;;;;12.13;9.27;;;4.70;1.00;;;;;;5054900;28;20683;-79
2022/11/17 03:39:45;;;;;;;13.00;9.90;;;4.70;1.00;;;;;;5054726;28;20186;-79
2022/11/17 03:42:19;;;;;;;13.70;9.83;;;4.70;1.00;;;;;;5056751;28;20747;-77
2022/11/17 03:44:50;;;;;;;15.03;11.10;;;4.70;26.20;;;;;;5051897;28;20257;-79
2022/11/17 03:47:19;;;;;;;12.53;10.03;;;4.70;15.20;;;;;;5054023;28;20212;-80
2022/11/17 03:49:56;;;;;;;12.90;10.03;;;4.80;5.10;;;;;;5052632;28;20210;-79
2022/11/17 03:52:24;;;;;;;13.20;10.73;;;4.60;1.00;;;;;;5049281;28;20186;-81
2022/11/17 03:54:50;;;;;;;13.87;10.37;;;5.30;1.00;;;;;;5047243;28;20644;-79
2022/11/17 03:57:23;;;;;;;13.07;9.80;;;4.50;1.00;;;;;;5047929;28;20194;-80
2022/11/17 04:00:08;;;;;;;13.17;10.23;;;4.60;1.00;;;;;;5045519;28;20186;-80
2022/11/17 04:02:34;;;;;;;15.10;10.10;;;4.60;1.00;;;;;;5045681;28;20186;-80
2022/11/17 04:05:06;;;;;;;13.27;10.10;;;4.60;1.00;;;;;;5047504;28;20195;-79
2022/11/17 04:07:33;;;;;;;13.60;9.70;;;4.60;1.00;;;;;;5048066;28;20210;-80
2022/11/17 04:09:59;;;;;;;11.70;9.23;;;4.60;1.00;;;;;;5046432;28;20210;-79
2022/11/17 04:17:54;;;;;;;11.97;8.93;;;4.60;1.00;;;;;;5046749;28;20270;-80
2022/11/17 04:20:20;;;;;;;13.10;9.47;;;4.60;1.00;;;;;;5047511;28;20868;-81
2022/11/17 04:23:05;;;;;;;12.60;9.63;;;4.50;1.00;;;;;;5046939;28;20171;-81
2022/11/17 04:31:00;;;;;;;11.50;9.60;;;4.50;1.00;;;;;;5047896;28;20295;-81
2022/11/17 04:33:26;;;;;;;13.73;10.63;;;4.50;1.00;;;;;;5046274;28;20225;-80
2022/11/17 04:35:51;;;;;;;12.07;9.37;;;4.50;1.00;;;;;;5044957;28;20217;-80
2022/11/17 04:38:17;;;;;;;11.73;9.73;;;4.50;1.00;;;;;;5046609;28;20186;-79
2022/11/17 04:41:52;;;;;;;14.43;9.83;;;4.40;1.00;;;;;;5047765;28;20202;-79
2022/11/17 04:43:28;;;;;;;12.43;9.57;;;4.50;1.00;;;;;;5045778;28;20261;-80
2022/11/17 04:45:58;;;;;;;13.10;10.73;;;4.40;1.00;;;;;;5052818;28;20767;-79
2022/11/17 04:48:24;;;;;;;11.20;9.50;;;4.50;1.00;;;;;;5046689;28;20202;-79
2022/11/17 04:50:54;;;;;;;13.33;9.93;;;4.50;1.00;;;;;;5046410;28;20531;-78
2022/11/17 04:53:20;;;;;;;13.13;10.60;;;4.50;1.00;;;;;;5055649;28;20221;-79
2022/11/17 04:55:46;;;;;;;13.83;10.80;;;4.50;1.00;;;;;;5046667;28;20202;-80
2022/11/17 04:58:12;;;;;;;13.83;11.00;;;4.50;1.00;;;;;;5047000;28;20189;-79
2022/11/17 05:00:37;;;;;;;12.60;9.80;;;4.50;1.00;;;;;;5046544;28;20178;-78
2022/11/17 05:03:03;;;;;;;14.57;10.80;;;4.40;1.00;;;;;;5047384;28;20197;-81
2022/11/17 05:05:29;;;;;;;12.73;9.70;;;4.40;1.00;;;;;;5047277;28;20998;-78
2022/11/17 05:07:54;;;;;;;14.87;11.60;;;4.50;1.00;;;;;;5045984;28;20182;-79
2022/11/17 05:13:20;;;;;;;13.83;11.07;;;4.40;1.00;;;;;;5047063;28;20277;-80
2022/11/17 05:13:21;;;;;;;14.23;11.43;;;5.40;1.00;;;;;;5046494;28;20182;-81
2022/11/17 05:18:39;;;;;;;14.57;12.00;;;4.40;1.00;;;;;;5048848;28;20699;-78
2022/11/17 05:21:07;;;;;;;15.90;12.13;;;4.40;1.00;;;;;;5048544;28;20186;-80
2022/11/17 05:26:17;;;;;;;17.27;12.73;;;4.30;1.00;;;;;;5047521;28;20263;-79
2022/11/17 05:28:43;;;;;;;16.93;13.00;;;4.30;1.00;;;;;;5047408;28;20293;-80
2022/11/17 05:31:09;;;;;;;16.00;12.10;;;4.30;1.00;;;;;;5048065;28;20648;-81
2022/11/17 05:33:35;;;;;;;16.17;12.90;;;4.30;1.00;;;;;;5050096;28;21168;-78
2022/11/17 05:36:01;;;;;;;17.13;13.27;;;4.30;1.00;;;;;;5049002;28;20213;-80
2022/11/17 05:38:27;;;;;;;16.83;13.27;;;4.30;1.00;;;;;;5048780;28;20189;-80
2022/11/17 05:40:52;;;;;;;19.13;13.70;;;4.30;1.00;;;;;;5049363;28;20185;-79
2022/11/17 05:43:18;;;;;;;16.17;13.17;;;4.30;1.00;;;;;;5048244;28;20205;-80
2022/11/17 05:45:47;;;;;;;17.90;14.17;;;4.30;1.00;;;;;;5049936;28;20194;-79
2022/11/17 05:48:13;;;;;;;18.80;14.47;;;4.30;1.00;;;;;;5048043;28;20636;-80
2022/11/17 05:50:39;;;;;;;20.23;14.63;;;4.30;1.00;;;;;;5048207;28;20575;-80
2022/11/17 05:53:05;;;;;;;18.73;14.70;;;4.40;1.00;;;;;;5049073;28;20178;-81
2022/11/17 05:55:31;;;;;;;19.37;14.77;;;4.20;1.00;;;;;;5048788;28;20720;-79
2022/11/17 05:58:01;;;;;;;18.97;14.27;;;4.20;1.00;;;;;;5048298;28;20186;-80
2022/11/17 06:00:28;;;;;;;19.13;14.53;;;4.70;1.00;;;;;;5050017;28;20177;-79
2022/11/17 06:02:58;;;;;;;18.23;14.60;;;4.10;1.00;;;;;;5050431;28;20178;-80
2022/11/17 06:05:24;;;;;;;18.33;14.53;;;4.10;1.00;;;;;;5048530;28;20190;-79
2022/11/17 06:07:53;;;;;;;19.97;14.87;;;4.10;1.00;;;;;;5048574;28;20182;-81
2022/11/17 06:10:19;;;;;;;19.17;14.97;;;4.10;1.00;;;;;;5050875;28;20675;-79
2022/11/17 06:12:45;;;;;;;19.73;15.00;;;4.00;1.00;;;;;;5049180;28;20197;-80
2022/11/17 06:15:11;;;;;;;20.60;14.87;;;4.10;1.00;;;;;;5047105;28;20340;-80
2022/11/17 06:17:59;;;;;;;20.73;15.07;;;4.10;1.00;;;;;;5047385;28;20292;-78
2022/11/17 06:20:29;;;;;;;19.77;14.80;;;4.10;1.00;;;;;;5049040;28;20183;-80
2022/11/17 06:22:59;;;;;;;20.40;15.80;;;4.10;1.00;;;;;;5049881;28;20179;-79
2022/11/17 06:25:26;;;;;;;19.47;14.60;;;4.10;1.00;;;;;;5049288;28;20216;-79
2022/11/17 06:27:53;;;;;;;20.73;17.03;;;4.10;1.00;;;;;;5048316;28;20194;-79
2022/11/17 06:30:19;;;;;;;24.93;16.13;;;4.10;1.00;;;;;;5045478;28;20198;-79
2022/11/17 06:32:46;;;;;;;21.07;16.40;;;4.00;1.00;;;;;;5048497;28;20190;-79
2022/11/17 06:35:15;;;;;;;22.23;16.70;;;4.00;1.00;;;;;;5048921;28;20170;-79
2022/11/17 06:37:40;;;;;;;21.43;16.57;;;4.00;1.00;;;;;;5044558;28;20202;-80
2022/11/17 06:40:07;;;;;;;21.47;16.47;;;4.00;1.00;;;;;;5048960;28;20184;-81
2022/11/17 06:45:17;;;;;;;22.67;17.53;;;4.00;1.00;;;;;;5047651;28;20867;-79
2022/11/17 06:47:42;;;;;;;19.70;16.07;;;4.00;1.00;;;;;;5046564;28;20273;-81
2022/11/17 06:50:09;;;;;;;22.83;16.73;;;4.00;1.00;;;;;;5048192;28;20291;-80
2022/11/17 06:52:34;;;;;;;23.80;17.10;;;4.40;1.00;;;;;;5046213;28;20218;-79
2022/11/17 06:55:00;;;;;;;23.87;18.20;;;3.90;1.00;;;;;;5047618;28;20237;-79
2022/11/17 06:57:26;;;;;;;23.83;17.77;;;3.90;1.00;;;;;;5049769;28;20205;-80
2022/11/17 06:59:51;;;;;;;22.87;16.53;;;3.90;1.00;;;;;;5046960;28;20651;-80
2022/11/17 07:02:17;;;;;;;23.80;17.57;;;3.90;1.00;;;;;;5047944;28;20179;-79
2022/11/17 07:04:43;;;;;;;25.20;18.47;;;3.90;1.00;;;;;;5048629;28;20178;-78
2022/11/17 07:07:10;;;;;;;24.33;16.57;;;3.90;1.00;;;;;;5045542;28;20340;-81
2022/11/17 07:09:36;;;;;;;22.83;16.93;;;3.90;1.00;;;;;;5046613;28;20206;-81
2022/11/17 07:12:01;;;;;;;22.53;16.97;;;3.90;1.00;;;;;;5047590;28;20225;-78
2022/11/17 07:14:27;;;;;;;22.17;17.07;;;3.90;1.00;;;;;;5047243;28;20257;-80
2022/11/17 07:16:52;;;;;;;21.17;15.90;;;3.90;1.00;;;;;;5048041;28;20210;-80
2022/11/17 07:19:18;;;;;;;21.87;16.03;;;3.90;1.00;;;;;;5047009;28;20185;-80
2022/11/17 07:21:44;;;;;;;23.10;15.83;;;3.90;99.90;;;;;;5046851;28;20186;-80
2022/11/17 07:24:09;;;;;;;21.43;15.93;;;3.90;99.90;;;;;;5046959;28;20190;-78
2022/11/17 07:26:35;;;;;;;21.97;15.83;;;3.90;99.90;;;;;;5048239;28;20226;-80
2022/11/17 07:29:00;;;;;;;22.73;16.60;;;3.80;99.90;;;;;;5046742;28;20218;-79
2022/11/17 07:31:26;;;;;;;25.07;17.63;;;3.80;1.00;;;;;;5048083;28;20170;-79
2022/11/17 07:33:54;;;;;;;24.23;17.07;;;3.90;1.00;;;;;;5047969;28;20186;-79
2022/11/17 07:36:20;;;;;;;22.40;17.27;;;3.90;1.00;;;;;;5047726;28;20212;-80
2022/11/17 07:38:46;;;;;;;22.57;17.53;;;4.00;1.00;;;;;;5046098;28;20186;-80
2022/11/17 07:41:13;;;;;;;20.67;16.33;;;4.00;1.00;;;;;;5046152;28;20182;-80
2022/11/17 07:43:39;;;;;;;20.80;15.70;;;3.90;99.90;;;;;;5044119;28;20194;-78
2022/11/17 07:46:07;;;;;;;21.83;16.47;;;4.00;1.00;;;;;;5042647;28;20729;-80
2022/11/17 07:48:33;;;;;;;23.87;16.93;;;3.90;1.00;;;;;;5046747;28;20206;-79
2022/11/17 07:51:00;;;;;;;20.67;15.77;;;3.80;1.00;;;;;;5046077;28;20255;-80
2022/11/17 07:53:25;;;;;;;20.20;15.27;;;3.90;1.00;;;;;;5046107;28;20278;-79
2022/11/17 07:55:51;;;;;;;20.93;15.87;;;3.80;1.00;;;;;;5046160;28;20763;-79
2022/11/17 07:58:17;;;;;;;22.00;15.67;;;3.90;1.00;;;;;;5045608;28;20186;-79
2022/11/17 08:00:42;;;;;;;21.57;15.77;;;3.80;1.00;;;;;;5045395;28;20188;-79
2022/11/17 08:03:09;;;;;;;20.53;15.33;;;3.80;1.00;;;;;;5047281;28;20206;-80
2022/11/17 08:05:37;;;;;;;20.73;15.23;;;3.80;1.00;;;;;;5045693;28;20661;-79
2022/11/17 08:08:04;;;;;;;21.67;15.77;;;3.80;1.00;;;;;;5045806;28;20217;-81
2022/11/17 08:10:30;;;;;;;22.90;15.57;;;3.80;1.00;;;;;;5044884;28;20588;-81
2022/11/17 08:12:57;;;;;;;21.10;15.27;;;3.80;1.00;;;;;;5046836;28;20240;-81
2022/11/17 08:15:23;;;;;;;21.07;15.57;;;3.80;1.00;;;;;;5046106;28;20202;-80
2022/11/17 08:17:53;;;;;;;20.23;15.33;;;3.80;1.00;;;;;;5045321;28;20214;-82
2022/11/17 08:20:19;;;;;;;19.07;15.17;;;3.80;1.00;;;;;;5046646;28;20193;-81
2022/11/17 08:22:45;;;;;;;22.07;14.73;;;3.80;1.00;;;;;;5045433;28;20186;-80
2022/11/17 08:25:11;;;;;;;20.70;14.23;;;3.80;1.00;;;;;;5046478;28;20190;-80
2022/11/17 08:27:40;;;;;;;20.37;14.87;;;4.90;1.00;;;;;;5045100;28;20304;-81
2022/11/17 08:30:06;;;;;;;28.07;14.63;;;3.80;1.00;;;;;;5043043;28;20213;-80
2022/11/17 08:32:32;;;;;;;17.53;13.00;;;3.80;1.00;;;;;;5044958;28;20182;-80
2022/11/17 08:34:58;;;;;;;18.87;13.97;;;3.80;1.00;;;;;;5046789;28;20682;-80
2022/11/17 08:37:23;;;;;;;18.27;13.67;;;3.80;27.10;;;;;;5047012;28;20202;-79
2022/11/17 08:39:49;;;;;;;20.43;13.73;;;3.90;48.50;;;;;;5045248;28;20730;-81
2022/11/17 08:42:15;;;;;;;17.87;12.73;;;3.90;1.00;;;;;;5044873;28;20190;-80
2022/11/17 08:44:41;;;;;;;19.13;13.50;;;3.90;1.00;;;;;;5044203;28;20193;-80
2022/11/17 08:47:07;;;;;;;26.70;13.80;;;3.90;33.00;;;;;;5042113;28;20206;-80
2022/11/17 08:49:32;;;;;;;39.27;14.13;;;3.90;5.20;;;;;;5044596;28;20287;-80
2022/11/17 08:51:58;;;;;;;20.17;12.37;;;3.90;14.80;;;;;;5043271;28;20676;-80
2022/11/17 08:54:24;;;;;;;28.47;13.63;;;3.90;27.30;;;;;;5042477;28;20178;-80
2022/11/17 08:56:49;;;;;;;19.07;12.90;;;3.90;16.80;;;;;;5043561;28;20202;-80
2022/11/17 08:59:15;;;;;;;26.80;12.90;;;3.90;52.30;;;;;;5043569;28;20304;-80
2022/11/17 09:01:41;;;;;;;27.53;13.37;;;3.90;12.70;;;;;;5046415;28;20190;-79
2022/11/17 09:04:07;;;;;;;25.27;12.40;;;3.90;1.00;;;;;;5044701;28;20686;-78
2022/11/17 09:06:33;;;;;;;27.50;12.83;;;3.90;1.00;;;;;;5046107;28;20202;-78
2022/11/17 09:08:58;;;;;;;20.57;12.30;;;3.90;1.00;;;;;;5041917;28;20216;-80
2022/11/17 09:11:24;;;;;;;21.90;11.73;;;3.90;1.00;;;;;;5042290;28;20273;-79
2022/11/17 09:13:49;;;;;;;18.97;12.30;;;4.00;22.20;;;;;;5040486;28;20270;-79
2022/11/17 09:16:16;;;;;;;15.70;11.87;;;4.00;1.00;;;;;;5042772;28;20237;-79
2022/11/17 09:18:42;;;;;;;17.50;11.93;;;4.00;1.00;;;;;;5043412;28;20251;-78
2022/11/17 09:21:10;;;;;;;15.73;11.57;;;4.10;1.00;;;;;;5044598;28;20194;-80
2022/11/17 09:23:36;;;;;;;25.90;20.13;;;4.20;1.00;;;;;;5044348;28;20252;-78
2022/11/17 09:26:08;;;;;;;106.13;72.47;;;4.10;1.00;;;;;;5040110;28;20253;-79
2022/11/17 09:28:33;;;;;;;34.40;30.70;;;4.10;1.00;;;;;;5042277;28;20684;-79
2022/11/17 09:31:05;;;;;;;36.33;32.53;;;4.10;1.00;;;;;;5044787;28;20280;-80
2022/11/17 09:33:30;;;;;;;29.53;26.77;;;4.20;1.00;;;;;;5043266;28;20183;-80
2022/11/17 09:35:56;;;;;;;25.37;21.33;;;4.20;1.00;;;;;;5043316;28;20217;-79
2022/11/17 09:38:22;;;;;;;22.57;17.87;;;4.20;1.00;;;;;;5043897;28;20193;-80
2022/11/17 09:40:48;;;;;;;24.23;19.20;;;4.20;1.00;;;;;;5042806;28;20205;-79
2022/11/17 09:43:36;;;;;;;26.37;20.93;;;4.10;1.00;;;;;;5041907;28;20263;-79
2022/11/17 09:46:11;;;;;;;26.50;22.07;;;4.20;1.00;;;;;;5035879;28;21343;-80
2022/11/17 09:48:46;;;;;;;17.13;14.47;;;4.20;1.00;;;;;;5037048;28;20263;-79
2022/11/17 09:51:16;;;;;;;18.93;16.10;;;4.20;1.00;;;;;;5038790;28;20212;-79
2022/11/17 09:53:44;;;;;;;20.17;15.53;;;4.30;1.00;;;;;;5036446;28;20182;-80
2022/11/17 09:56:13;;;;;;;21.37;16.30;;;4.30;1.00;;;;;;5036527;28;20252;-79
2022/11/17 09:58:41;;;;;;;23.00;18.87;;;4.40;1.00;;;;;;5041176;28;21174;-80
2022/11/17 10:01:27;;;;;;;18.13;13.80;;;4.40;1.00;;;;;;5041344;28;20299;-78
2022/11/17 10:03:55;;;;;;;22.00;17.10;;;4.40;1.00;;;;;;5044901;28;20273;-79
2022/11/17 10:06:23;;;;;;;18.80;14.63;;;4.40;1.00;;;;;;5046426;28;20238;-79
2022/11/17 10:09:26;;;;;;;22.33;16.97;;;4.40;1.00;;;;;;5043723;28;20206;-79
2022/11/17 10:11:58;;;;;;;15.00;12.07;;;4.40;1.00;;;;;;5041927;28;20185;-80
2022/11/17 10:14:27;;;;;;;21.60;15.77;;;4.40;1.00;;;;;;5042713;28;20247;-79
2022/11/17 10:16:55;;;;;;;45.50;30.07;;;4.50;1.00;;;;;;5042375;28;20209;-79
2022/11/17 10:19:27;;;;;;;33.13;22.87;;;4.50;1.00;;;;;;5044800;28;20240;-78
2022/11/17 10:22:05;;;;;;;29.37;20.50;;;4.50;1.00;;;;;;5042920;28;20194;-79
2022/11/17 10:24:35;;;;;;;18.83;14.07;;;4.60;1.00;;;;;;5043447;28;20182;-80
2022/11/17 10:27:16;;;;;;;22.63;16.03;;;4.60;1.00;;;;;;5040176;28;20218;-80
2022/11/17 10:29:54;;;;;;;18.07;13.37;;;4.50;1.00;;;;;;5044566;28;20213;-79
2022/11/17 10:32:20;;;;;;;19.17;14.17;;;4.60;1.00;;;;;;5043561;28;20928;-79
2022/11/17 10:34:46;;;;;;;14.67;12.10;;;4.60;1.00;;;;;;5045751;28;20178;-80
2022/11/17 10:37:11;;;;;;;12.73;10.23;;;4.60;1.00;;;;;;5045183;28;20202;-80
2022/11/17 10:39:40;;;;;;;26.67;18.07;;;4.60;1.00;;;;;;5044690;28;20182;-79
2022/11/17 10:42:19;;;;;;;23.23;16.70;;;4.50;1.00;;;;;;5053096;28;20190;-79
2022/11/17 10:44:51;;;;;;;20.73;13.33;;;4.50;1.00;;;;;;5045556;28;20170;-79
2022/11/17 10:47:46;;;;;;;19.60;14.37;;;4.50;1.00;;;;;;5045518;28;20230;-79
2022/11/17 10:50:26;;;;;;;14.53;11.37;;;4.50;1.00;;;;;;5047438;28;20218;-79
2022/11/17 10:52:54;;;;;;;21.33;13.50;;;4.50;1.00;;;;;;5046033;28;20182;-79
2022/11/17 10:55:27;;;;;;;14.47;11.57;;;5.60;1.00;;;;;;5044835;28;20186;-78
2022/11/17 10:58:42;;;;;;;20.23;13.67;;;4.50;1.00;;;;;;5044811;28;20189;-78
2022/11/17 11:01:09;;;;;;;19.73;14.13;;;4.60;1.00;;;;;;5042144;28;20663;-79
2022/11/17 11:03:35;;;;;;;28.20;21.87;;;4.60;1.00;;;;;;5045098;28;20182;-78
2022/11/17 11:06:18;;;;;;;31.30;24.07;;;4.60;1.00;;;;;;5042998;28;20267;-79
2022/11/17 11:08:58;;;;;;;68.87;47.63;;;4.70;1.00;;;;;;5043904;28;20198;-80
2022/11/17 11:11:27;;;;;;;40.57;28.93;;;4.70;1.00;;;;;;5046078;28;20256;-79
2022/11/17 11:14:04;;;;;;;50.33;37.30;;;4.70;1.00;;;;;;5046700;28;20178;-79
2022/11/17 11:16:29;;;;;;;30.80;23.03;;;4.70;1.00;;;;;;5041509;28;20197;-79
2022/11/17 11:18:57;;;;;;;19.07;14.60;;;4.80;1.00;;;;;;5044520;28;20239;-79
2022/11/17 11:21:25;;;;;;;18.20;15.37;;;4.80;1.00;;;;;;5044142;28;20205;-80
2022/11/17 11:24:09;;;;;;;21.87;17.60;;;4.70;1.00;;;;;;5045464;28;20205;-79
2022/11/17 11:27:05;;;;;;;45.37;34.17;;;4.90;1.00;;;;;;5044189;28;20221;-79
2022/11/17 11:29:52;;;;;;;11.53;10.20;;;4.90;1.00;;;;;;5047584;28;20198;-78
2022/11/17 11:32:21;;;;;;;12.80;11.57;;;4.80;1.00;;;;;;5046050;28;20182;-80
2022/11/17 11:35:22;;;;;;;11.67;10.47;;;4.90;1.00;;;;;;5045727;28;20178;-79
2022/11/17 11:38:10;;;;;;;13.53;11.73;;;4.90;1.00;;;;;;5045277;28;20190;-79
2022/11/17 11:40:39;;;;;;;9.27;8.23;;;4.80;1.00;;;;;;5042810;28;20594;-79
2022/11/17 11:43:16;;;;;;;10.07;8.83;;;4.90;1.00;;;;;;5041361;28;20179;-79
2022/11/17 11:45:51;;;;;;;7.03;6.33;;;4.90;1.00;;;;;;5040575;28;20212;-79
2022/11/17 11:48:30;;;;;;;7.85;6.70;;;4.80;1.00;;;;;;5044545;28;20182;-80
2022/11/17 11:51:15;;;;;;;8.70;7.80;;;4.80;1.00;;;;;;5045639;28;20453;-79
2022/11/17 11:53:50;;;;;;;11.87;10.30;;;4.80;1.00;;;;;;5043657;28;20217;-79
2022/11/17 11:56:22;;;;;;;6.60;6.00;;;4.80;1.00;;;;;;5045079;28;20216;-79
2022/11/17 11:59:13;;;;;;;7.87;7.00;;;4.80;1.00;;;;;;5044903;28;20190;-80
2022/11/17 12:01:47;;;;;;;6.93;6.23;;;4.80;1.00;;;;;;5044900;28;20225;-80
2022/11/17 12:04:38;;;;;;;8.50;7.70;;;4.80;1.00;;;;;;5045769;28;20199;-79
2022/11/17 12:07:32;;;;;;;9.00;8.10;;;4.80;1.00;;;;;;5038131;28;20225;-80
2022/11/17 12:10:06;;;;;;;8.50;7.60;;;4.80;1.00;;;;;;5043664;28;20424;-80
2022/11/17 12:12:36;;;;;;;10.37;9.27;;;4.90;1.00;;;;;;5044515;28;20452;-79
2022/11/17 12:15:11;;;;;;;13.67;12.20;;;4.90;1.00;;;;;;5043831;28;20644;-79
2022/11/17 12:17:52;;;;;;;10.07;9.07;;;4.90;1.00;;;;;;5044090;28;20197;-80
2022/11/17 12:20:29;;;;;;;9.27;8.30;;;5.00;1.00;;;;;;5044094;28;20182;-77
2022/11/17 12:23:33;;;;;;;13.30;11.90;;;5.00;1.00;;;;;;5045659;28;20225;-79
2022/11/17 12:26:00;;;;;;;13.47;11.40;;;5.00;1.00;;;;;;5043353;28;20272;-80
2022/11/17 12:28:34;;;;;;;11.37;10.17;;;5.00;1.00;;;;;;5041388;28;20189;-79
2022/11/17 12:31:28;;;;;;;6.27;5.67;;;4.90;1.00;;;;;;5047569;28;20177;-79
2022/11/17 12:34:00;;;;;;;6.20;5.60;;;4.90;1.00;;;;;;5045966;28;20183;-79
2022/11/17 12:36:31;;;;;;;6.10;5.50;;;5.00;1.00;;;;;;5045398;28;20208;-80
2022/11/17 12:39:05;;;;;;;5.77;5.20;;;5.00;1.00;;;;;;5044578;28;20251;-79
2022/11/17 12:41:49;;;;;;;5.47;4.97;;;4.90;1.00;;;;;;5043483;28;20220;-79
2022/11/17 12:44:37;;;;;;;7.23;6.53;;;4.90;1.00;;;;;;5043403;28;20216;-79
2022/11/17 12:47:12;;;;;;;6.53;5.50;;;4.80;1.00;;;;;;5043470;28;20251;-80
2022/11/17 12:50:13;;;;;;;6.53;5.93;;;4.90;1.00;;;;;;5043641;28;20197;-79
2022/11/17 12:52:53;;;;;;;6.10;5.50;;;4.90;1.00;;;;;;5043440;28;20719;-80
2022/11/17 12:55:34;;;;;;;7.07;6.37;;;4.90;1.00;;;;;;5044080;28;20228;-79
2022/11/17 12:58:27;;;;;;;6.33;5.70;;;5.10;1.00;;;;;;5037699;28;20198;-77
2022/11/17 13:01:18;;;;;;;7.00;6.40;;;5.00;1.00;;;;;;5042985;28;20847;-80
2022/11/17 13:03:56;;;;;;;5.80;5.30;;;5.00;1.00;;;;;;5041280;28;20197;-78
2022/11/17 13:06:22;;;;;;;7.70;7.00;;;5.00;1.00;;;;;;5041351;28;20583;-80
2022/11/17 13:08:59;;;;;;;6.10;5.50;;;5.10;1.00;;;;;;5041444;28;20206;-80
2022/11/17 13:11:25;;;;;;;5.80;5.27;;;5.10;1.00;;;;;;5043060;28;20213;-79
2022/11/17 13:14:11;;;;;;;11.97;10.70;;;5.10;1.00;;;;;;5044014;28;21671;-79
2022/11/17 13:16:47;;;;;;;15.20;13.63;;;5.10;1.00;;;;;;5044592;28;20259;-79
2022/11/17 13:19:37;;;;;;;7.07;6.40;;;5.10;1.00;;;;;;5043167;28;20181;-79
2022/11/17 13:22:15;;;;;;;8.07;7.23;;;5.10;1.00;;;;;;5045001;28;20222;-79
2022/11/17 13:24:47;;;;;;;8.20;7.40;;;5.10;1.00;;;;;;5043929;28;20898;-79
2022/11/17 13:27:27;;;;;;;7.90;7.20;;;5.40;1.00;;;;;;5043278;28;20257;-79
2022/11/17 13:30:13;;;;;;;8.63;7.83;;;5.20;1.00;;;;;;5045088;28;20586;-79
2022/11/17 13:32:42;;;;;;;6.43;5.83;;;5.10;1.00;;;;;;5045674;28;20606;-79
2022/11/17 13:35:21;;;;;;;6.90;6.20;;;5.40;1.00;;;;;;5042571;28;20181;-79
2022/11/17 13:38:25;;;;;;;5.40;4.90;;;5.10;1.00;;;;;;5053623;28;20348;-84
2022/11/17 13:40:52;;;;;;;5.33;4.83;;;5.20;1.00;;;;;;5047585;28;20269;-79
2022/11/17 13:43:23;;;;;;;4.73;4.33;;;5.10;1.00;;;;;;5047913;28;20178;-78
2022/11/17 13:45:50;;;;;;;5.03;4.53;;;5.20;1.00;;;;;;5046534;28;20194;-79